Time;durP1;ratioP1;P1;durP2;ratioP2;P2;SDS_P1;SDS_P2;PMS_P1;PMS_P2;Temp;Humidity;BMP_temperature;BMP_pressure;BME280_temperature;BME280_humidity;BME280_pressure;Samples;Min_cycle;Max_cycle;Signal;HPM_P1;HPM_P2
2021/03/14 00:00:59;;;;;;;5.60;2.55;;;;;;;;;;5136296;28;20184;-54
2021/03/14 00:03:27;;;;;;;7.20;4.25;;;;;;;;;;5136172;28;20215;-53
2021/03/14 00:06:09;;;;;;;9.07;4.75;;;;;;;;;;5136021;28;20222;-54
2021/03/14 00:08:38;;;;;;;8.05;4.57;;;;;;;;;;5135809;28;20208;-49
2021/03/14 00:11:06;;;;;;;12.73;3.75;;;;;;;;;;5136259;28;20192;-56
2021/03/14 00:13:45;;;;;;;4.35;1.80;;;;;;;;;;5136800;27;20200;-54
2021/03/14 00:16:12;;;;;;;5.97;1.95;;;;;;;;;;5136615;28;20196;-56
2021/03/14 00:18:40;;;;;;;4.57;2.22;;;;;;;;;;5136090;28;20205;-50
2021/03/14 00:21:26;;;;;;;5.60;2.20;;;;;;;;;;5154830;27;20207;-52
2021/03/14 00:23:55;;;;;;;12.63;5.03;;;;;;;;;;5156929;27;20203;-58
2021/03/14 00:26:23;;;;;;;6.43;2.85;;;;;;;;;;5157248;27;20238;-49
2021/03/14 00:28:50;;;;;;;5.75;2.75;;;;;;;;;;5156944;27;20733;-50
2021/03/14 00:31:17;;;;;;;15.38;6.85;;;;;;;;;;5157111;28;20190;-51
2021/03/14 00:33:46;;;;;;;14.13;3.00;;;;;;;;;;5156820;27;20268;-57
2021/03/14 00:36:13;;;;;;;17.65;8.20;;;;;;;;;;5156494;27;20224;-51
2021/03/14 00:38:40;;;;;;;8.70;3.35;;;;;;;;;;5157281;28;20264;-57
2021/03/14 00:41:28;;;;;;;6.20;2.75;;;;;;;;;;5156662;28;20188;-51
2021/03/14 00:43:56;;;;;;;6.65;2.40;;;;;;;;;;5156675;27;20204;-54
2021/03/14 00:46:23;;;;;;;15.13;6.75;;;;;;;;;;5156656;27;20227;-54
2021/03/14 00:49:09;;;;;;;14.75;7.47;;;;;;;;;;5156434;27;20183;-57
2021/03/14 00:51:36;;;;;;;5.43;2.20;;;;;;;;;;5156089;28;20234;-48
2021/03/14 00:54:03;;;;;;;11.45;4.65;;;;;;;;;;5156279;28;20204;-48
2021/03/14 00:56:56;;;;;;;16.90;8.23;;;;;;;;;;5156393;28;20188;-54
2021/03/14 00:59:24;;;;;;;25.40;14.48;;;;;;;;;;5137946;27;20261;-52
2021/03/14 01:01:50;;;;;;;14.82;6.88;;;;;;;;;;5135326;28;20215;-49
2021/03/14 01:04:17;;;;;;;28.63;11.40;;;;;;;;;;5135717;28;20260;-55
2021/03/14 01:06:44;;;;;;;23.33;12.77;;;;;;;;;;5136091;28;20207;-53
2021/03/14 01:09:12;;;;;;;14.07;3.53;;;;;;;;;;5139823;28;20200;-55
2021/03/14 01:11:39;;;;;;;14.27;6.85;;;;;;;;;;5139246;28;20192;-54
2021/03/14 01:14:06;;;;;;;27.70;12.50;;;;;;;;;;5140011;28;20219;-54
2021/03/14 01:16:34;;;;;;;88.43;52.13;;;;;;;;;;5140160;28;20287;-48
2021/03/14 01:19:00;;;;;;;104.28;67.38;;;;;;;;;;5139200;28;20192;-53
2021/03/14 01:21:37;;;;;;;13.93;5.40;;;;;;;;;;5139630;28;20204;-58
2021/03/14 01:24:04;;;;;;;15.55;8.77;;;;;;;;;;5139442;28;20199;-50
2021/03/14 01:26:31;;;;;;;14.02;2.88;;;;;;;;;;5139418;28;20428;-48
2021/03/14 01:29:17;;;;;;;5.90;2.35;;;;;;;;;;5139161;28;20197;-50
2021/03/14 01:31:45;;;;;;;12.75;7.38;;;;;;;;;;5138945;28;20204;-49
2021/03/14 01:34:12;;;;;;;30.85;22.08;;;;;;;;;;5139339;28;20212;-55
2021/03/14 01:36:41;;;;;;;7.53;3.10;;;;;;;;;;5139294;28;20259;-51
2021/03/14 01:39:11;;;;;;;16.13;7.82;;;;;;;;;;5139090;28;20200;-56
2021/03/14 01:41:38;;;;;;;7.75;2.45;;;;;;;;;;5139175;28;20200;-47
2021/03/14 01:44:41;;;;;;;19.98;11.88;;;;;;;;;;5132807;28;20227;-51
2021/03/14 01:47:11;;;;;;;28.27;13.43;;;;;;;;;;5139048;28;20220;-53
2021/03/14 01:49:38;;;;;;;22.90;10.02;;;;;;;;;;5138991;28;20215;-57
2021/03/14 01:52:08;;;;;;;7.63;2.38;;;;;;;;;;5136015;28;20243;-55
2021/03/14 01:54:35;;;;;;;22.30;12.07;;;;;;;;;;5138930;28;20220;-52
2021/03/14 01:57:29;;;;;;;6.32;1.83;;;;;;;;;;5139229;28;20211;-48
2021/03/14 01:59:57;;;;;;;3.30;1.77;;;;;;;;;;5124656;28;20299;-54
2021/03/14 02:02:25;;;;;;;18.10;10.27;;;;;;;;;;5138726;28;20188;-51
2021/03/14 02:04:54;;;;;;;8.15;4.78;;;;;;;;;;5138417;28;20189;-53
2021/03/14 02:07:21;;;;;;;39.75;24.83;;;;;;;;;;5138350;28;20307;-52
2021/03/14 02:09:48;;;;;;;21.30;13.88;;;;;;;;;;5138633;28;20185;-49
2021/03/14 02:12:23;;;;;;;7.15;2.00;;;;;;;;;;5135317;28;20208;-55
2021/03/14 02:14:52;;;;;;;22.30;13.55;;;;;;;;;;5117583;28;20215;-54
2021/03/14 02:17:20;;;;;;;23.55;17.27;;;;;;;;;;5117891;28;20202;-55
2021/03/14 02:19:50;;;;;;;4.93;1.23;;;;;;;;;;5118010;28;20257;-54
2021/03/14 02:22:17;;;;;;;8.90;2.15;;;;;;;;;;5118004;28;20213;-52
2021/03/14 02:24:45;;;;;;;5.13;2.30;;;;;;;;;;5117888;28;20189;-54
2021/03/14 02:27:31;;;;;;;6.72;1.80;;;;;;;;;;5117720;28;20221;-50
2021/03/14 02:29:59;;;;;;;4.72;2.40;;;;;;;;;;5117791;28;20200;-51
2021/03/14 02:32:27;;;;;;;4.18;2.00;;;;;;;;;;5117635;28;20274;-52
2021/03/14 02:35:06;;;;;;;4.25;1.65;;;;;;;;;;5117542;28;20224;-58
2021/03/14 02:37:34;;;;;;;9.43;2.42;;;;;;;;;;5117365;28;20204;-53
2021/03/14 02:40:01;;;;;;;11.57;3.97;;;;;;;;;;5119062;28;20197;-53
2021/03/14 02:42:30;;;;;;;4.95;2.00;;;;;;;;;;5132529;28;20216;-50
2021/03/14 02:44:59;;;;;;;9.73;4.05;;;;;;;;;;5124205;28;20242;-53
2021/03/14 02:47:26;;;;;;;10.52;2.25;;;;;;;;;;5133324;28;20285;-54
2021/03/14 02:49:53;;;;;;;7.57;3.67;;;;;;;;;;5137896;28;20204;-52
2021/03/14 02:52:21;;;;;;;4.93;1.95;;;;;;;;;;5138148;28;20219;-55
2021/03/14 02:54:52;;;;;;;8.00;4.28;;;;;;;;;;5137704;28;20226;-54
2021/03/14 02:57:30;;;;;;;12.25;6.32;;;;;;;;;;5137762;28;20197;-52
2021/03/14 02:59:57;;;;;;;14.10;4.72;;;;;;;;;;5137321;28;20239;-55
2021/03/14 03:02:25;;;;;;;4.25;2.00;;;;;;;;;;5137831;28;20218;-57
2021/03/14 03:04:54;;;;;;;7.20;4.10;;;;;;;;;;5137288;28;20192;-52
2021/03/14 03:07:22;;;;;;;12.93;7.05;;;;;;;;;;5137417;28;20261;-54
2021/03/14 03:09:50;;;;;;;8.93;2.60;;;;;;;;;;5137516;28;20192;-52
2021/03/14 03:12:29;;;;;;;6.22;2.15;;;;;;;;;;5137438;28;20607;-55
2021/03/14 03:14:57;;;;;;;10.90;4.57;;;;;;;;;;5136994;28;20212;-54
2021/03/14 03:17:25;;;;;;;6.40;2.10;;;;;;;;;;5137351;28;20188;-51
2021/03/14 03:22:59;;;;;;;9.75;2.50;;;;;;;;;;5137394;28;20175;-55
2021/03/14 03:25:26;;;;;;;6.70;2.13;;;;;;;;;;5151935;27;20219;-51
2021/03/14 03:27:53;;;;;;;8.27;3.83;;;;;;;;;;5157997;27;20198;-56
2021/03/14 03:30:21;;;;;;;5.32;2.60;;;;;;;;;;5157008;27;20188;-54
2021/03/14 03:32:49;;;;;;;6.80;2.28;;;;;;;;;;5157467;27;20191;-56
2021/03/14 03:35:52;;;;;;;6.40;2.95;;;;;;;;;;5157437;27;20225;-50
2021/03/14 03:38:21;;;;;;;4.75;2.05;;;;;;;;;;5157640;27;20203;-54
2021/03/14 03:40:47;;;;;;;17.40;7.00;;;;;;;;;;5157387;27;20199;-53
2021/03/14 03:43:18;;;;;;;9.00;3.80;;;;;;;;;;5157354;27;20196;-51
2021/03/14 03:45:47;;;;;;;4.68;2.35;;;;;;;;;;5157345;27;20224;-55
2021/03/14 03:48:19;;;;;;;8.05;3.40;;;;;;;;;;5157566;27;20231;-54
2021/03/14 03:50:47;;;;;;;6.13;3.05;;;;;;;;;;5157378;27;20208;-55
2021/03/14 03:53:13;;;;;;;7.47;2.40;;;;;;;;;;5157949;27;20172;-57
2021/03/14 03:56:00;;;;;;;12.45;3.83;;;;;;;;;;5157823;27;20192;-51
2021/03/14 03:58:27;;;;;;;7.78;2.70;;;;;;;;;;5157624;27;20199;-58
2021/03/14 04:00:55;;;;;;;10.70;4.22;;;;;;;;;;5158220;27;20200;-47
2021/03/14 04:03:31;;;;;;;9.18;4.40;;;;;;;;;;5157176;27;20386;-55
2021/03/14 04:05:58;;;;;;;11.98;6.00;;;;;;;;;;5156435;27;20223;-58
2021/03/14 04:08:27;;;;;;;6.95;4.35;;;;;;;;;;5157210;27;20210;-53
2021/03/14 04:11:22;;;;;;;15.60;10.20;;;;;;;;;;5157335;27;20203;-48
2021/03/14 04:13:51;;;;;;;10.07;4.85;;;;;;;;;;5156779;27;20229;-53
2021/03/14 04:16:18;;;;;;;13.70;5.22;;;;;;;;;;5156529;27;20200;-52
2021/03/14 04:19:10;;;;;;;10.63;3.22;;;;;;;;;;5156777;27;20366;-53
2021/03/14 04:21:39;;;;;;;7.18;3.20;;;;;;;;;;5155806;27;20229;-55
2021/03/14 04:24:06;;;;;;;10.60;3.33;;;;;;;;;;5156437;27;20232;-57
2021/03/14 04:26:33;;;;;;;7.05;3.33;;;;;;;;;;5155749;27;20204;-57
2021/03/14 04:29:00;;;;;;;9.95;5.65;;;;;;;;;;5156904;27;20200;-52
2021/03/14 04:31:28;;;;;;;8.63;3.65;;;;;;;;;;5156189;28;20217;-52
2021/03/14 04:34:18;;;;;;;8.40;3.50;;;;;;;;;;5156756;27;20203;-55
2021/03/14 04:36:47;;;;;;;11.18;3.65;;;;;;;;;;5156529;28;20207;-55
2021/03/14 04:39:14;;;;;;;6.20;2.70;;;;;;;;;;5156173;28;20195;-51
2021/03/14 04:41:59;;;;;;;8.35;2.92;;;;;;;;;;5158257;27;20195;-53
2021/03/14 04:44:26;;;;;;;9.25;3.67;;;;;;;;;;5160989;27;20218;-55
2021/03/14 04:46:53;;;;;;;9.50;4.75;;;;;;;;;;5160555;27;20219;-57
2021/03/14 04:49:20;;;;;;;10.55;4.10;;;;;;;;;;5161146;27;20206;-52
2021/03/14 04:51:49;;;;;;;6.75;2.53;;;;;;;;;;5160088;27;20199;-52
2021/03/14 04:54:18;;;;;;;7.97;2.88;;;;;;;;;;5140414;28;20196;-54
2021/03/14 04:57:21;;;;;;;13.32;2.67;;;;;;;;;;5157907;27;20196;-47
2021/03/14 04:59:49;;;;;;;10.88;4.55;;;;;;;;;;5159894;27;20195;-57
2021/03/14 05:02:16;;;;;;;6.15;2.50;;;;;;;;;;5140595;28;20208;-56
2021/03/14 05:04:51;;;;;;;8.85;3.70;;;;;;;;;;5154312;27;20196;-56
2021/03/14 05:07:20;;;;;;;7.68;3.22;;;;;;;;;;5154081;27;20231;-54
2021/03/14 05:09:48;;;;;;;7.55;3.50;;;;;;;;;;5151104;27;20252;-54
2021/03/14 05:15:19;;;;;;;10.85;3.90;;;;;;;;;;5154340;27;20222;-55
2021/03/14 05:17:48;;;;;;;5.20;2.97;;;;;;;;;;5160090;27;20377;-53
2021/03/14 05:20:15;;;;;;;10.85;4.00;;;;;;;;;;5147391;27;20211;-49
2021/03/14 05:22:44;;;;;;;7.32;2.67;;;;;;;;;;5159561;27;20195;-52
2021/03/14 05:25:37;;;;;;;6.45;2.78;;;;;;;;;;5160231;27;20191;-50
2021/03/14 05:28:04;;;;;;;8.57;3.08;;;;;;;;;;5160128;27;20191;-58
2021/03/14 05:30:34;;;;;;;7.88;2.25;;;;;;;;;;5147367;27;20302;-54
2021/03/14 05:33:05;;;;;;;8.90;2.67;;;;;;;;;;5139589;28;20192;-54
2021/03/14 05:35:33;;;;;;;14.35;4.90;;;;;;;;;;5138752;28;20204;-49
2021/03/14 05:38:02;;;;;;;6.60;2.72;;;;;;;;;;5139496;28;20192;-56
2021/03/14 05:40:30;;;;;;;9.07;3.05;;;;;;;;;;5138703;28;20216;-51
2021/03/14 05:42:58;;;;;;;9.70;3.38;;;;;;;;;;5139182;28;20277;-57
2021/03/14 05:45:25;;;;;;;7.30;3.25;;;;;;;;;;5138941;28;20241;-54
2021/03/14 05:47:57;;;;;;;18.80;3.42;;;;;;;;;;5139060;28;20366;-55
2021/03/14 05:50:25;;;;;;;10.60;3.47;;;;;;;;;;5138803;28;20208;-54
2021/03/14 05:52:52;;;;;;;14.38;3.22;;;;;;;;;;5138393;28;20201;-57
2021/03/14 05:55:27;;;;;;;10.48;4.28;;;;;;;;;;5140099;27;20209;-52
2021/03/14 05:57:55;;;;;;;11.70;3.05;;;;;;;;;;5159748;27;20183;-53
2021/03/14 06:00:25;;;;;;;9.95;3.53;;;;;;;;;;5159494;27;20187;-51
2021/03/14 06:03:02;;;;;;;7.88;2.72;;;;;;;;;;5158988;27;20200;-54
2021/03/14 06:05:30;;;;;;;9.15;4.25;;;;;;;;;;5159443;27;20214;-55
2021/03/14 06:07:58;;;;;;;10.30;3.35;;;;;;;;;;5159113;27;20188;-53
2021/03/14 06:10:35;;;;;;;7.55;3.63;;;;;;;;;;5158844;27;20195;-49
2021/03/14 06:13:02;;;;;;;15.50;3.78;;;;;;;;;;5158732;27;20214;-52
2021/03/14 06:15:28;;;;;;;9.00;3.78;;;;;;;;;;5158979;27;20406;-54
2021/03/14 06:18:06;;;;;;;8.65;3.25;;;;;;;;;;5158612;27;20204;-52
2021/03/14 06:20:35;;;;;;;15.82;4.18;;;;;;;;;;5146489;27;20192;-50
2021/03/14 06:23:06;;;;;;;15.65;4.20;;;;;;;;;;5138058;28;20196;-49
2021/03/14 06:25:42;;;;;;;7.18;3.80;;;;;;;;;;5144256;27;20256;-57
2021/03/14 06:28:09;;;;;;;6.22;3.65;;;;;;;;;;5158527;27;20192;-55
2021/03/14 06:30:36;;;;;;;10.95;4.75;;;;;;;;;;5147028;27;20187;-53
2021/03/14 06:33:10;;;;;;;12.65;4.65;;;;;;;;;;5137890;28;20230;-52
2021/03/14 06:35:41;;;;;;;9.35;4.20;;;;;;;;;;5137897;28;20208;-49
2021/03/14 06:38:24;;;;;;;23.60;5.78;;;;;;;;;;5137473;28;20259;-54
2021/03/14 06:40:53;;;;;;;7.70;3.22;;;;;;;;;;5155180;27;20188;-55
2021/03/14 06:43:20;;;;;;;11.00;4.55;;;;;;;;;;5158616;27;20215;-59
2021/03/14 06:45:47;;;;;;;10.13;4.25;;;;;;;;;;5158520;27;20252;-51
2021/03/14 06:48:34;;;;;;;14.10;3.92;;;;;;;;;;5159092;27;20188;-50
2021/03/14 06:51:02;;;;;;;10.30;4.15;;;;;;;;;;5158755;27;20217;-56
2021/03/14 06:53:29;;;;;;;6.95;4.03;;;;;;;;;;5157590;27;20255;-55
2021/03/14 06:56:06;;;;;;;11.57;3.95;;;;;;;;;;5157725;27;20213;-51
2021/03/14 06:58:34;;;;;;;7.70;4.25;;;;;;;;;;5157682;27;20237;-52
2021/03/14 07:01:13;;;;;;;12.18;4.80;;;;;;;;;;5157483;27;20188;-53
2021/03/14 07:03:40;;;;;;;12.20;4.38;;;;;;;;;;5156943;27;20203;-50
2021/03/14 07:06:17;;;;;;;11.10;4.95;;;;;;;;;;5156565;27;20337;-59
2021/03/14 07:11:49;;;;;;;9.85;5.05;;;;;;;;;;5175431;27;20303;-51
2021/03/14 07:14:16;;;;;;;12.95;5.50;;;;;;;;;;5178268;27;20273;-58
2021/03/14 07:16:52;;;;;;;13.27;5.18;;;;;;;;;;5178010;27;20206;-57
2021/03/14 07:19:22;;;;;;;14.10;4.70;;;;;;;;;;5175078;27;20220;-58
2021/03/14 07:22:03;;;;;;;14.13;4.63;;;;;;;;;;5177570;27;20211;-57
2021/03/14 07:25:01;;;;;;;12.40;5.15;;;;;;;;;;5161538;27;20196;-53
2021/03/14 07:27:29;;;;;;;10.20;4.15;;;;;;;;;;5157635;27;20302;-50
2021/03/14 07:29:57;;;;;;;21.67;4.50;;;;;;;;;;5157327;27;20194;-56
2021/03/14 07:32:33;;;;;;;14.00;4.78;;;;;;;;;;5156972;27;20192;-50
2021/03/14 07:35:00;;;;;;;15.25;4.50;;;;;;;;;;5172076;27;20214;-54
2021/03/14 07:37:26;;;;;;;17.63;5.07;;;;;;;;;;5177680;27;20210;-57
2021/03/14 07:40:09;;;;;;;13.32;5.13;;;;;;;;;;5165377;27;20208;-49
2021/03/14 07:42:37;;;;;;;25.63;5.97;;;;;;;;;;5162292;27;20195;-52
2021/03/14 07:45:05;;;;;;;8.45;3.90;;;;;;;;;;5171075;27;20206;-53
2021/03/14 07:47:37;;;;;;;7.40;3.60;;;;;;;;;;5177757;27;20577;-53
2021/03/14 07:50:05;;;;;;;8.65;4.30;;;;;;;;;;5177416;27;20201;-55
2021/03/14 07:52:33;;;;;;;12.48;5.32;;;;;;;;;;5177585;27;20198;-52
2021/03/14 07:55:05;;;;;;;17.60;4.82;;;;;;;;;;5177533;27;20203;-54
2021/03/14 07:57:32;;;;;;;8.18;4.22;;;;;;;;;;5177623;27;20195;-49
2021/03/14 08:00:20;;;;;;;13.13;4.70;;;;;;;;;;5177417;27;20219;-58
2021/03/14 08:03:14;;;;;;;7.20;4.28;;;;;;;;;;5158117;27;20216;-52
2021/03/14 08:05:48;;;;;;;6.82;3.53;;;;;;;;;;5156087;27;20191;-51
2021/03/14 08:08:30;;;;;;;13.60;4.07;;;;;;;;;;5156426;27;20299;-55
2021/03/14 08:10:57;;;;;;;9.63;4.45;;;;;;;;;;5156737;27;20215;-60
2021/03/14 08:13:38;;;;;;;10.70;4.20;;;;;;;;;;5177085;27;20195;-53
2021/03/14 08:16:07;;;;;;;11.32;5.55;;;;;;;;;;5176655;27;20214;-50
2021/03/14 08:18:35;;;;;;;9.05;4.97;;;;;;;;;;5176618;27;20190;-51
2021/03/14 08:21:02;;;;;;;10.75;5.47;;;;;;;;;;5176880;27;20219;-61
2021/03/14 08:23:56;;;;;;;11.20;3.88;;;;;;;;;;5176720;27;20183;-59
2021/03/14 08:26:24;;;;;;;11.00;3.95;;;;;;;;;;5160830;27;20215;-57
2021/03/14 08:28:55;;;;;;;5.43;3.00;;;;;;;;;;5170902;27;20199;-52
2021/03/14 08:31:42;;;;;;;10.15;3.85;;;;;;;;;;5175916;27;20199;-59
2021/03/14 08:34:10;;;;;;;6.68;3.45;;;;;;;;;;5156259;28;20218;-52
2021/03/14 08:36:39;;;;;;;8.48;4.43;;;;;;;;;;5166068;27;20188;-53
2021/03/14 08:39:07;;;;;;;9.82;3.85;;;;;;;;;;5168507;27;20180;-58
2021/03/14 08:41:40;;;;;;;9.57;4.47;;;;;;;;;;5171523;27;20219;-58
2021/03/14 08:44:12;;;;;;;10.43;4.45;;;;;;;;;;5176902;27;20187;-52
2021/03/14 08:49:46;;;;;;;8.25;3.67;;;;;;;;;;5168319;27;20170;-54
2021/03/14 08:52:13;;;;;;;7.63;3.80;;;;;;;;;;5177158;27;20183;-54
2021/03/14 08:54:41;;;;;;;12.07;5.10;;;;;;;;;;5176876;27;20247;-53
2021/03/14 08:57:20;;;;;;;8.20;4.10;;;;;;;;;;5142280;28;20225;-56
2021/03/14 08:59:55;;;;;;;7.38;4.18;;;;;;;;;;5156306;28;20195;-56
2021/03/14 09:02:24;;;;;;;13.35;4.70;;;;;;;;;;5158867;27;20199;-49
2021/03/14 09:04:53;;;;;;;8.80;3.70;;;;;;;;;;5176474;27;20210;-53
2021/03/14 09:07:20;;;;;;;12.63;5.00;;;;;;;;;;5176383;27;20230;-55
2021/03/14 09:09:51;;;;;;;8.00;4.03;;;;;;;;;;5176509;27;20183;-59
2021/03/14 09:12:22;;;;;;;13.05;5.05;;;;;;;;;;5176282;27;20175;-51
2021/03/14 09:14:52;;;;;;;8.45;3.40;;;;;;;;;;5176447;27;20195;-56
2021/03/14 09:17:20;;;;;;;12.40;4.38;;;;;;;;;;5176214;27;20247;-54
2021/03/14 09:19:49;;;;;;;14.63;5.55;;;;;;;;;;5155723;28;20208;-58
2021/03/14 09:22:19;;;;;;;10.88;4.97;;;;;;;;;;5165395;27;20260;-58
2021/03/14 09:24:47;;;;;;;10.20;5.05;;;;;;;;;;5155597;28;20177;-57
2021/03/14 09:27:29;;;;;;;10.93;4.25;;;;;;;;;;5164926;27;20215;-49
2021/03/14 09:29:56;;;;;;;12.98;4.65;;;;;;;;;;5176895;27;20203;-56
2021/03/14 09:32:31;;;;;;;10.65;4.13;;;;;;;;;;5159365;27;20207;-56
2021/03/14 09:35:17;;;;;;;9.05;5.03;;;;;;;;;;5175795;27;20203;-51
2021/03/14 09:37:46;;;;;;;7.45;4.00;;;;;;;;;;5158923;27;20195;-56
2021/03/14 09:40:17;;;;;;;11.80;4.38;;;;;;;;;;5158914;27;20198;-55
2021/03/14 09:42:50;;;;;;;9.75;3.10;;;;;;;;;;5158642;27;20260;-61
2021/03/14 09:45:48;;;;;;;6.13;3.15;;;;;;;;;;5176635;27;20202;-56
2021/03/14 09:48:26;;;;;;;10.88;4.82;;;;;;;;;;5166097;27;20211;-57
2021/03/14 09:50:55;;;;;;;4.45;2.92;;;;;;;;;;5159008;27;20229;-58
2021/03/14 09:53:27;;;;;;;4.45;2.42;;;;;;;;;;5159376;27;20199;-59
2021/03/14 09:56:02;;;;;;;8.45;3.70;;;;;;;;;;5168117;27;20279;-56
2021/03/14 09:58:30;;;;;;;3.63;1.92;;;;;;;;;;5171506;27;20203;-58
2021/03/14 10:00:57;;;;;;;5.00;2.33;;;;;;;;;;5180122;27;20213;-51
2021/03/14 10:03:27;;;;;;;3.58;1.92;;;;;;;;;;5173443;27;20212;-57
2021/03/14 10:05:54;;;;;;;5.50;2.75;;;;;;;;;;5163884;27;20326;-57
2021/03/14 10:08:22;;;;;;;4.53;2.58;;;;;;;;;;5173193;27;20207;-55
2021/03/14 10:10:51;;;;;;;4.07;2.47;;;;;;;;;;5178794;27;20224;-53
2021/03/14 10:13:19;;;;;;;5.43;2.78;;;;;;;;;;5171908;27;20191;-56
2021/03/14 10:15:53;;;;;;;5.95;3.00;;;;;;;;;;5159210;27;20184;-57
2021/03/14 10:18:21;;;;;;;6.63;3.03;;;;;;;;;;5158732;27;20202;-56
2021/03/14 10:20:48;;;;;;;7.97;3.55;;;;;;;;;;5158140;27;20188;-55
2021/03/14 10:23:21;;;;;;;7.75;3.55;;;;;;;;;;5158937;27;20196;-54
2021/03/14 10:25:48;;;;;;;3.83;2.75;;;;;;;;;;5178752;27;20191;-52
2021/03/14 10:28:17;;;;;;;5.80;2.95;;;;;;;;;;5178804;27;20207;-54
2021/03/14 10:31:02;;;;;;;7.70;3.20;;;;;;;;;;5178261;27;20192;-53
2021/03/14 10:33:30;;;;;;;6.25;3.40;;;;;;;;;;5178363;27;20203;-55
2021/03/14 10:36:00;;;;;;;5.55;2.75;;;;;;;;;;5178999;27;20199;-59
2021/03/14 10:38:27;;;;;;;5.68;3.65;;;;;;;;;;5178528;27;20209;-52
2021/03/14 10:41:08;;;;;;;8.77;4.97;;;;;;;;;;5178083;27;20230;-55
2021/03/14 10:43:44;;;;;;;6.10;4.28;;;;;;;;;;5163847;27;20225;-61
2021/03/14 10:46:12;;;;;;;5.95;3.70;;;;;;;;;;5168901;27;20207;-53
2021/03/14 10:48:40;;;;;;;5.72;4.25;;;;;;;;;;5172789;27;20184;-55
2021/03/14 10:51:09;;;;;;;6.55;3.88;;;;;;;;;;5167303;27;20227;-58
2021/03/14 10:53:37;;;;;;;7.60;4.10;;;;;;;;;;5160941;27;20183;-59
2021/03/14 10:56:12;;;;;;;5.78;3.25;;;;;;;;;;5157218;27;20196;-57
2021/03/14 10:58:43;;;;;;;5.90;3.15;;;;;;;;;;5155201;27;20191;-57
2021/03/14 11:01:14;;;;;;;17.40;9.33;;;;;;;;;;5147802;27;20185;-52
2021/03/14 11:03:48;;;;;;;7.90;4.50;;;;;;;;;;5137076;28;20434;-56
2021/03/14 11:06:17;;;;;;;8.85;3.38;;;;;;;;;;5149533;27;20491;-55
2021/03/14 11:08:47;;;;;;;6.20;3.47;;;;;;;;;;5157071;27;20331;-51
2021/03/14 11:11:27;;;;;;;7.07;4.33;;;;;;;;;;5149648;27;20458;-50
2021/03/14 11:13:55;;;;;;;6.22;3.78;;;;;;;;;;5137387;27;20497;-55
2021/03/14 11:16:25;;;;;;;5.43;2.80;;;;;;;;;;5134928;28;20200;-53
2021/03/14 11:18:59;;;;;;;3.67;2.80;;;;;;;;;;5136334;28;20446;-54
2021/03/14 11:21:30;;;;;;;5.03;3.22;;;;;;;;;;5115444;28;20181;-53
2021/03/14 11:24:04;;;;;;;5.80;2.95;;;;;;;;;;5114995;28;20200;-55
2021/03/14 11:26:31;;;;;;;3.70;2.40;;;;;;;;;;5115870;28;20221;-56
2021/03/14 11:28:59;;;;;;;6.57;2.90;;;;;;;;;;5115736;28;20201;-51
2021/03/14 11:31:26;;;;;;;5.18;3.38;;;;;;;;;;5115028;28;20439;-58
2021/03/14 11:33:53;;;;;;;5.83;2.90;;;;;;;;;;5114472;28;20205;-54
2021/03/14 11:36:32;;;;;;;6.32;2.95;;;;;;;;;;5115810;28;20423;-55
2021/03/14 11:39:04;;;;;;;5.90;3.03;;;;;;;;;;5116944;28;20213;-57
2021/03/14 11:41:32;;;;;;;7.00;2.93;;;;;;;;;;5133554;28;20212;-51
2021/03/14 11:44:02;;;;;;;4.90;3.03;;;;;;;;;;5135350;28;20546;-55
2021/03/14 11:46:29;;;;;;;8.07;3.37;;;;;;;;;;5135627;28;20481;-54
2021/03/14 11:48:58;;;;;;;4.97;3.43;;;;;;;;;;5135176;28;20465;-59
2021/03/14 11:51:40;;;;;;;5.50;4.07;;;;;;;;;;5134703;28;20434;-61
2021/03/14 11:54:10;;;;;;;5.37;3.47;;;;;;;;;;5139902;27;20472;-57
2021/03/14 11:56:37;;;;;;;6.03;4.00;;;;;;;;;;5156819;27;20457;-54
2021/03/14 11:59:18;;;;;;;7.93;3.40;;;;;;;;;;5144966;27;20473;-57
2021/03/14 12:02:05;;;;;;;5.33;2.90;;;;;;;;;;5143075;27;20461;-57
2021/03/14 12:04:34;;;;;;;5.60;2.97;;;;;;;;;;5135741;28;20453;-53
2021/03/14 12:07:03;;;;;;;4.00;2.80;;;;;;;;;;5145815;27;20474;-59
2021/03/14 12:09:29;;;;;;;5.17;3.43;;;;;;;;;;5136460;28;20434;-55
2021/03/14 12:12:01;;;;;;;5.87;3.07;;;;;;;;;;5138775;27;20425;-55
2021/03/14 12:14:30;;;;;;;6.60;3.57;;;;;;;;;;5139291;27;20481;-53
2021/03/14 12:16:59;;;;;;;4.53;3.53;;;;;;;;;;5116210;28;20435;-58
2021/03/14 12:19:43;;;;;;;4.77;3.20;;;;;;;;;;5127999;28;20522;-51
2021/03/14 12:22:11;;;;;;;5.63;2.90;;;;;;;;;;5149403;27;20549;-56
2021/03/14 12:24:38;;;;;;;5.30;3.10;;;;;;;;;;5157501;27;20426;-62
2021/03/14 12:27:17;;;;;;;3.80;3.00;;;;;;;;;;5154359;27;20512;-54
2021/03/14 12:29:51;;;;;;;5.00;2.60;;;;;;;;;;5147620;27;20617;-59
2021/03/14 12:32:21;;;;;;;5.63;2.40;;;;;;;;;;5157154;28;20453;-56
2021/03/14 12:35:00;;;;;;;3.93;2.20;;;;;;;;;;5156739;28;20449;-57
2021/03/14 12:37:27;;;;;;;3.03;2.23;;;;;;;;;;5157106;27;20467;-58
2021/03/14 12:39:58;;;;;;;5.33;2.80;;;;;;;;;;5157002;28;20457;-54
2021/03/14 12:42:27;;;;;;;4.90;2.83;;;;;;;;;;5157265;27;20480;-54
2021/03/14 12:45:00;;;;;;;3.80;2.50;;;;;;;;;;5157416;28;20440;-57
2021/03/14 12:47:45;;;;;;;6.10;3.30;;;;;;;;;;5157121;27;20493;-60
2021/03/14 12:50:27;;;;;;;4.87;2.57;;;;;;;;;;5157504;27;20530;-56
2021/03/14 12:52:54;;;;;;;5.17;2.80;;;;;;;;;;5145250;28;20470;-57
2021/03/14 12:55:21;;;;;;;5.40;3.30;;;;;;;;;;5143620;28;20474;-55
2021/03/14 12:57:48;;;;;;;9.70;3.90;;;;;;;;;;5152623;28;20460;-53
2021/03/14 13:00:17;;;;;;;4.90;3.80;;;;;;;;;;5136587;28;20460;-54
2021/03/14 13:03:09;;;;;;;5.47;3.60;;;;;;;;;;5158121;27;20465;-58
2021/03/14 13:05:37;;;;;;;4.93;3.87;;;;;;;;;;5156186;27;20531;-57
2021/03/14 13:08:05;;;;;;;7.30;4.30;;;;;;;;;;5156856;27;20514;-52
2021/03/14 13:10:33;;;;;;;6.57;3.83;;;;;;;;;;5160994;27;20492;-55
2021/03/14 13:13:00;;;;;;;11.57;5.00;;;;;;;;;;5161015;27;20453;-53
2021/03/14 13:15:29;;;;;;;7.43;4.90;;;;;;;;;;5152895;27;20468;-50
2021/03/14 13:18:13;;;;;;;6.73;3.93;;;;;;;;;;5154241;27;20434;-55
2021/03/14 13:20:47;;;;;;;8.67;4.53;;;;;;;;;;5132816;28;20730;-57
2021/03/14 13:23:17;;;;;;;7.20;4.83;;;;;;;;;;5148616;27;20444;-58
2021/03/14 13:25:47;;;;;;;7.17;3.90;;;;;;;;;;5160155;27;20461;-54
2021/03/14 13:28:15;;;;;;;7.67;4.63;;;;;;;;;;5135976;28;20528;-54
2021/03/14 13:30:43;;;;;;;6.00;4.40;;;;;;;;;;5140049;28;20446;-50
2021/03/14 13:33:20;;;;;;;5.43;4.20;;;;;;;;;;5136038;28;20458;-51
2021/03/14 13:35:56;;;;;;;6.43;4.20;;;;;;;;;;5130713;28;20542;-62
2021/03/14 13:38:25;;;;;;;5.87;5.00;;;;;;;;;;5131790;28;20442;-53
2021/03/14 13:41:01;;;;;;;7.53;4.53;;;;;;;;;;5145530;27;20443;-56
2021/03/14 13:43:27;;;;;;;7.30;5.10;;;;;;;;;;5130468;28;20458;-59
2021/03/14 13:45:55;;;;;;;8.53;5.10;;;;;;;;;;5151507;27;20450;-54
2021/03/14 13:48:28;;;;;;;8.63;4.13;;;;;;;;;;5139773;28;20533;-56
2021/03/14 13:50:55;;;;;;;7.07;4.27;;;;;;;;;;5134727;28;20462;-54
2021/03/14 13:53:33;;;;;;;7.73;3.87;;;;;;;;;;5116009;28;20451;-50
2021/03/14 13:56:00;;;;;;;5.90;3.43;;;;;;;;;;5150771;27;20518;-58
2021/03/14 13:58:27;;;;;;;5.70;2.93;;;;;;;;;;5118839;28;20435;-54
2021/03/14 14:01:07;;;;;;;4.70;3.20;;;;;;;;;;5136811;27;20525;-55
2021/03/14 14:03:37;;;;;;;4.53;2.50;;;;;;;;;;5150676;27;20463;-57
2021/03/14 14:06:07;;;;;;;5.20;2.90;;;;;;;;;;5129815;27;20549;-54
2021/03/14 14:08:43;;;;;;;9.27;3.43;;;;;;;;;;5136583;27;20435;-57
2021/03/14 14:11:12;;;;;;;5.13;3.50;;;;;;;;;;5126664;27;20459;-54
2021/03/14 14:13:39;;;;;;;6.80;3.47;;;;;;;;;;5159114;27;20540;-50
2021/03/14 14:16:12;;;;;;;4.20;2.67;;;;;;;;;;5143962;27;20469;-52
2021/03/14 14:18:49;;;;;;;4.47;3.00;;;;;;;;;;5138373;28;20442;-56
2021/03/14 14:21:16;;;;;;;4.90;2.70;;;;;;;;;;5153105;27;20806;-52
2021/03/14 14:24:00;;;;;;;6.80;1.93;;;;;;;;;;5139035;28;20434;-56
2021/03/14 14:26:27;;;;;;;3.83;1.90;;;;;;;;;;5134910;28;20474;-58
2021/03/14 14:28:54;;;;;;;3.70;1.57;;;;;;;;;;5080651;28;20453;-57
2021/03/14 14:31:39;;;;;;;3.87;2.20;;;;;;;;;;5097583;28;20456;-59
2021/03/14 14:34:12;;;;;;;7.60;2.33;;;;;;;;;;5095620;28;20533;-59
2021/03/14 14:36:39;;;;;;;3.83;1.97;;;;;;;;;;5096390;28;20865;-55
2021/03/14 14:39:11;;;;;;;5.60;2.50;;;;;;;;;;5089926;28;20445;-53
2021/03/14 14:41:38;;;;;;;3.50;1.60;;;;;;;;;;5094577;28;20459;-53
2021/03/14 14:44:07;;;;;;;3.80;2.10;;;;;;;;;;5092646;28;20420;-58
2021/03/14 14:46:34;;;;;;;3.73;2.10;;;;;;;;;;5077676;28;20469;-51
2021/03/14 14:49:01;;;;;;;5.33;2.20;;;;;;;;;;5088763;28;20436;-55
2021/03/14 14:51:33;;;;;;;4.17;1.90;;;;;;;;;;5080499;28;20445;-53
2021/03/14 14:54:26;;;;;;;4.77;1.90;;;;;;;;;;5086849;28;20455;-55
2021/03/14 14:56:53;;;;;;;3.33;1.90;;;;;;;;;;5097972;28;20459;-58
2021/03/14 14:59:21;;;;;;;4.90;2.00;;;;;;;;;;5097517;28;20428;-59
2021/03/14 15:01:50;;;;;;;3.97;2.20;;;;;;;;;;5088034;28;20546;-55
2021/03/14 15:04:18;;;;;;;4.13;2.50;;;;;;;;;;5096772;28;20457;-55
2021/03/14 15:06:46;;;;;;;4.27;2.00;;;;;;;;;;5085371;28;20496;-52
2021/03/14 15:09:17;;;;;;;5.93;2.67;;;;;;;;;;5091497;28;20452;-58
2021/03/14 15:11:43;;;;;;;5.40;2.97;;;;;;;;;;5097173;28;20547;-58
2021/03/14 15:14:11;;;;;;;5.00;1.80;;;;;;;;;;5097192;28;20460;-57
2021/03/14 15:16:54;;;;;;;7.90;1.90;;;;;;;;;;5087863;28;20465;-60